Main page
METAR-TAF:

METAR-TAF

Airports :

Casablanca–Anfa Airport

Casablanca, Morocco

latitude: 33-34N, longitude: 007-40W, elevation: 62 m

Current weather observation

The report was made 3 hours and 37 minutes ago, at 10:58 UTC
Wind 16 kt from the West/Southwest with gusts up to 33 kt
Temperature 15°C
Humidity 63%
Pressure 1020 hPa
Visibility 10 km or more
Scattered clouds at a height of 1600 ft, Towering cumulus.
Scattered clouds at a height of 10000 ft
rain

METAR: GMMC 241058Z 24016G33KT 9999 RA SCT016TCU SCT100 15/08 Q1020

Time: 15:35 (14:35 UTC)


TAF: missing

Weather observations and forecasts of more than 4000 airports (METAR and TAF reports).

The available stations are represented by yellow and red dots on the map.

Hover mouse over dot to see the name of the station.

Then click to see weather observations and forecasts.

To change the map : click on the green buttons with a black cross to zoom in, on the green button with a dash to zoom out, or on the green arrows for adjacent maps.


METAR-TAF: